createdAt,value
2022-08-14T00:02:24.522Z,60057.34
2022-08-14T00:04:55.465Z,59882.25
2022-08-14T00:07:22.941Z,59858.69
2022-08-14T00:09:56.299Z,59730.72
2022-08-14T00:12:53.354Z,59720.72
2022-08-14T00:15:43.784Z,59564.56
2022-08-14T00:18:31.006Z,59416.22
2022-08-14T00:21:03.589Z,59324.97
2022-08-14T00:23:31.026Z,59311.59
2022-08-14T00:26:06.792Z,59223.94
2022-08-14T00:28:40.748Z,59142.88
2022-08-14T00:31:09.875Z,58989.25
2022-08-14T00:33:51.683Z,58955.47
2022-08-14T00:36:39.496Z,58905.94
2022-08-14T00:39:18.026Z,58769.53
2022-08-14T00:41:47.893Z,58662.53
2022-08-14T00:44:27.594Z,58467.09
2022-08-14T00:47:10.751Z,58322.56
2022-08-14T00:49:43.408Z,58243.28
2022-08-14T00:52:18.072Z,58001.78
2022-08-14T00:54:50.564Z,57870.38
2022-08-14T00:57:19.790Z,57737.03
2022-08-14T00:59:48.524Z,57603.13
2022-08-14T01:02:24.628Z,57604.88
2022-08-14T01:04:58.408Z,57603.69
2022-08-14T01:07:28.563Z,57545.31
2022-08-14T01:10:06.674Z,57432.56
2022-08-14T01:12:34.172Z,57374.38
2022-08-14T01:15:09.780Z,57224.59
2022-08-14T01:18:01.438Z,57280.38
2022-08-14T01:20:48.361Z,57277.53
2022-08-14T01:23:18.784Z,57303.34
2022-08-14T01:25:51.494Z,57266.09
2022-08-14T01:28:34.235Z,57185.59
2022-08-14T01:31:15.531Z,57045.09
2022-08-14T01:35:15.854Z,56929.09
2022-08-14T01:36:37.030Z,56866.69
2022-08-14T01:39:12.560Z,56782.00
2022-08-14T01:41:43.911Z,56658.19
2022-08-14T01:44:32.044Z,56471.88
2022-08-14T01:47:16.481Z,56278.56
2022-08-14T01:49:59.725Z,56038.28
2022-08-14T01:52:59.954Z,55788.44
2022-08-14T01:55:32.220Z,55218.78
2022-08-14T01:58:20.143Z,54762.81
2022-08-14T02:00:55.359Z,54427.50
2022-08-14T02:03:31.993Z,54098.50
2022-08-14T02:06:31.855Z,53898.06
2022-08-14T02:08:52.921Z,53743.25
2022-08-14T02:11:25.055Z,53491.38
2022-08-14T02:14:06.833Z,53247.03
2022-08-14T02:16:45.008Z,52910.94
2022-08-14T02:19:19.313Z,52497.84
2022-08-14T02:21:54.626Z,52042.19
2022-08-14T02:24:40.377Z,51783.09
2022-08-14T02:28:24.614Z,51900.19
2022-08-14T02:30:02.158Z,51815.06
2022-08-14T02:32:35.874Z,51863.94
2022-08-14T02:35:13.660Z,51957.75
2022-08-14T02:37:48.085Z,51586.31
2022-08-14T02:40:18.433Z,51201.88
2022-08-14T02:42:54.780Z,50817.53
2022-08-14T02:45:38.285Z,50268.53
2022-08-14T02:49:04.921Z,49850.50
2022-08-14T02:51:05.428Z,49279.63
2022-08-14T02:53:33.738Z,48946.22
2022-08-14T02:56:30.728Z,48864.50
2022-08-14T02:58:55.743Z,49056.94
2022-08-14T03:01:26.200Z,48985.66
2022-08-14T03:03:59.315Z,48928.66
2022-08-14T03:06:35.172Z,48825.91
2022-08-14T03:09:15.177Z,48567.13
2022-08-14T03:11:44.758Z,48323.31
2022-08-14T03:14:15.427Z,47846.44
2022-08-14T03:16:45.607Z,47183.25
2022-08-14T03:19:19.690Z,46699.25
2022-08-14T03:21:52.956Z,46286.94
2022-08-14T03:24:23.268Z,46066.03
2022-08-14T03:26:57.306Z,46125.91
2022-08-14T03:29:26.408Z,46078.16
2022-08-14T03:31:57.726Z,46210.00
2022-08-14T03:34:47.439Z,46109.91
2022-08-14T03:37:39.185Z,45740.44
2022-08-14T03:40:01.297Z,45758.22
2022-08-14T03:42:31.148Z,45581.63
2022-08-14T03:45:25.467Z,45189.19
2022-08-14T03:47:58.918Z,44813.47
2022-08-14T03:50:31.297Z,44566.19
2022-08-14T03:53:01.538Z,44401.50
2022-08-14T03:55:30.386Z,44008.50
2022-08-14T03:58:00.656Z,43711.69
2022-08-14T04:00:42.973Z,43127.69
2022-08-14T04:03:17.971Z,42512.19
2022-08-14T04:05:48.406Z,42156.88
2022-08-14T04:08:29.729Z,41493.50
2022-08-14T04:11:03.006Z,41140.50
2022-08-14T04:13:39.376Z,41279.13
2022-08-14T04:16:15.163Z,41125.19
2022-08-14T04:18:45.306Z,40879.94
2022-08-14T04:21:16.141Z,40585.75
2022-08-14T04:23:45.352Z,40246.25
2022-08-14T04:26:26.969Z,40245.00
2022-08-14T04:29:14.801Z,40974.75
2022-08-14T04:32:58.631Z,41394.34
2022-08-14T04:34:30.421Z,41307.25
2022-08-14T04:37:21.885Z,41159.13
2022-08-14T04:40:08.792Z,41533.22
2022-08-14T04:42:56.894Z,42260.78
2022-08-14T04:45:40.538Z,42004.59
2022-08-14T04:48:13.177Z,41945.72
2022-08-14T04:50:54.302Z,42323.00
2022-08-14T04:53:26.542Z,42792.69
2022-08-14T04:56:03.385Z,43347.91
2022-08-14T04:58:35.586Z,43965.50
2022-08-14T05:01:12.883Z,44242.03
2022-08-14T05:03:47.346Z,44825.81
2022-08-14T05:06:37.394Z,45073.78
2022-08-14T05:09:02.706Z,45273.22
2022-08-14T05:11:33.315Z,45401.03
2022-08-14T05:14:16.815Z,46216.31
2022-08-14T05:16:52.954Z,46462.03
2022-08-14T05:19:26.990Z,46866.22
2022-08-14T05:22:16.392Z,47526.00
2022-08-14T05:24:49.565Z,48218.22
2022-08-14T05:27:22.749Z,48552.16
2022-08-14T05:29:56.967Z,48654.59
2022-08-14T05:32:27.289Z,48971.69
2022-08-14T05:34:58.631Z,49130.25
2022-08-14T05:37:27.322Z,49253.06
2022-08-14T05:39:56.047Z,49773.16
2022-08-14T05:42:29.336Z,49934.44
2022-08-14T05:44:59.973Z,50335.09
2022-08-14T05:47:33.771Z,50723.81
2022-08-14T05:50:17.498Z,51082.91
2022-08-14T05:52:48.661Z,51083.44
2022-08-14T05:55:17.025Z,51003.25
2022-08-14T05:57:55.037Z,51067.00
2022-08-14T06:00:39.137Z,51599.47
2022-08-14T06:03:10.113Z,52820.22
2022-08-14T06:05:39.066Z,53189.25
2022-08-14T06:08:36.729Z,53858.13
2022-08-14T06:11:04.234Z,54181.41
2022-08-14T06:13:41.072Z,54332.59
2022-08-14T06:16:17.830Z,54251.63
2022-08-14T06:18:51.726Z,54240.13
2022-08-14T06:21:21.445Z,54242.44
2022-08-14T06:23:50.132Z,54445.69
2022-08-14T06:26:20.720Z,54600.47
2022-08-14T06:28:52.022Z,54667.91
2022-08-14T06:31:22.906Z,54465.44
2022-08-14T06:35:10.769Z,54351.75
2022-08-14T06:36:39.315Z,54216.03
2022-08-14T06:39:10.420Z,54570.28
2022-08-14T06:41:58.094Z,54585.16
2022-08-14T06:44:30.324Z,54719.59
2022-08-14T06:47:01.985Z,54848.63
2022-08-14T06:49:30.309Z,54896.53
2022-08-14T06:51:58.187Z,55128.53
2022-08-14T06:54:31.134Z,55336.97
2022-08-14T06:56:59.584Z,55422.03
2022-08-14T06:59:27.125Z,55303.47
2022-08-14T07:02:17.641Z,55379.81
2022-08-14T07:05:05.101Z,55264.47
2022-08-14T07:07:41.312Z,55431.22
2022-08-14T07:10:16.854Z,55457.06
2022-08-14T07:13:00.733Z,55503.34
2022-08-14T07:15:32.566Z,55306.28
2022-08-14T07:18:02.391Z,55311.41
2022-08-14T07:20:32.037Z,55441.31
2022-08-14T07:23:19.841Z,55430.50
2022-08-14T07:25:51.506Z,55474.00
2022-08-14T07:28:28.771Z,55624.28
2022-08-14T07:31:04.183Z,55690.91
2022-08-14T07:33:45.448Z,55537.94
2022-08-14T07:36:26.983Z,55405.69
2022-08-14T07:39:00.334Z,55256.03
2022-08-14T07:41:31.163Z,55117.09
2022-08-14T07:44:28.986Z,54866.53
2022-08-14T07:46:50.588Z,54794.97
2022-08-14T07:49:20.176Z,54849.34
2022-08-14T07:51:49.339Z,54777.13
2022-08-14T07:54:23.376Z,54687.06
2022-08-14T07:57:06.240Z,54784.69
2022-08-14T07:59:43.683Z,54590.16
2022-08-14T08:02:19.079Z,55029.97
2022-08-14T08:04:54.259Z,55071.59
2022-08-14T08:07:24.923Z,55001.50
2022-08-14T08:09:59.525Z,54988.22
2022-08-14T08:12:30.788Z,54856.81
2022-08-14T08:15:03.102Z,54969.84
2022-08-14T08:17:42.412Z,54728.25
2022-08-14T08:20:20.025Z,54637.97
2022-08-14T08:22:55.567Z,54685.25
2022-08-14T08:25:25.134Z,54833.34
2022-08-14T08:28:22.200Z,54739.78
2022-08-14T08:31:00.123Z,54983.00
2022-08-14T08:33:32.359Z,54998.34
2022-08-14T08:36:08.416Z,54803.41
2022-08-14T08:39:17.102Z,54412.53
2022-08-14T08:41:43.544Z,53703.50
2022-08-14T08:44:17.458Z,54024.63
2022-08-14T08:47:05.298Z,54841.16
2022-08-14T08:49:48.528Z,55623.28
2022-08-14T08:52:31.171Z,55926.19
2022-08-14T08:55:04.655Z,55820.38
2022-08-14T08:57:39.076Z,55357.88
2022-08-14T09:00:25.748Z,55761.09
2022-08-14T09:03:03.272Z,55749.81
2022-08-14T09:05:33.454Z,55307.81
2022-08-14T09:08:34.668Z,54619.38
2022-08-14T09:11:19.035Z,54710.97
2022-08-14T09:13:53.750Z,55299.75
2022-08-14T09:16:25.542Z,55927.22
2022-08-14T09:18:55.196Z,56163.03
2022-08-14T09:21:24.922Z,56950.88
2022-08-14T09:24:30.183Z,57339.47
2022-08-14T09:26:49.232Z,56819.22
2022-08-14T09:29:23.223Z,56780.69
2022-08-14T09:31:57.702Z,56265.81
2022-08-14T09:34:47.478Z,56501.09
2022-08-14T09:37:42.113Z,57095.97
2022-08-14T09:40:47.823Z,58601.22
2022-08-14T09:43:50.403Z,59337.59
2022-08-14T09:46:21.303Z,60166.50
2022-08-14T09:49:00.475Z,60493.47
2022-08-14T09:51:32.613Z,60976.28
2022-08-14T09:54:17.999Z,62551.19
2022-08-14T09:56:57.140Z,63773.75
2022-08-14T09:59:33.706Z,64452.66
2022-08-14T10:02:07.061Z,64831.28
2022-08-14T10:04:42.352Z,65192.69
2022-08-14T10:07:13.489Z,65485.34
2022-08-14T10:09:59.558Z,65550.19
2022-08-14T10:12:54.838Z,65586.56
2022-08-14T10:15:29.880Z,65789.63
2022-08-14T10:18:17.300Z,65682.09
2022-08-14T10:21:00.890Z,65485.41
2022-08-14T10:23:43.448Z,65425.16
2022-08-14T10:26:23.052Z,65231.69
2022-08-14T10:29:20.192Z,65071.31
2022-08-14T10:31:59.415Z,65471.91
2022-08-14T10:34:36.516Z,65817.69
2022-08-14T10:37:14.887Z,65874.50
2022-08-14T10:40:05.748Z,66032.38
2022-08-14T10:42:41.106Z,66044.94
2022-08-14T10:45:25.689Z,66458.00
2022-08-14T10:48:07.897Z,66404.56
2022-08-14T10:50:45.666Z,66608.38
2022-08-14T10:53:14.522Z,66755.88
2022-08-14T10:55:45.342Z,66861.59
2022-08-14T10:58:14.757Z,67108.28
2022-08-14T11:00:56.701Z,66868.66
2022-08-14T11:03:26.904Z,66740.81
2022-08-14T11:06:22.396Z,66557.75
2022-08-14T11:08:52.863Z,66351.56
2022-08-14T11:11:22.892Z,66275.03
2022-08-14T11:13:50.711Z,66365.59
2022-08-14T11:16:19.572Z,66603.63
2022-08-14T11:18:51.108Z,66706.84
2022-08-14T11:21:22.960Z,66590.97
2022-08-14T11:23:53.815Z,66580.06
2022-08-14T11:26:27.957Z,66834.75
2022-08-14T11:29:00.328Z,67028.13
2022-08-14T11:31:38.741Z,67138.75
2022-08-14T11:34:10.276Z,67359.06
2022-08-14T11:37:09.336Z,67416.25
2022-08-14T11:39:42.544Z,67494.50
2022-08-14T11:42:56.484Z,67479.16
2022-08-14T11:45:17.078Z,67530.63
2022-08-14T11:48:13.428Z,67421.91
2022-08-14T11:50:37.419Z,67520.84
2022-08-14T11:53:08.806Z,67668.03
2022-08-14T11:55:39.056Z,67950.63
2022-08-14T11:58:10.572Z,67900.00
2022-08-14T12:00:49.518Z,67847.19
2022-08-14T12:03:27.319Z,67805.91
2022-08-14T12:06:27.727Z,67740.31
2022-08-14T12:09:00.106Z,67780.34
2022-08-14T12:11:43.302Z,67771.09
2022-08-14T12:14:13.547Z,67816.66
2022-08-14T12:17:00.688Z,67757.88
2022-08-14T12:19:33.486Z,67768.97
2022-08-14T12:22:02.790Z,67787.00
2022-08-14T12:24:35.829Z,67763.59
2022-08-14T12:27:04.630Z,67809.97
2022-08-14T12:29:35.000Z,67771.13
2022-08-14T12:32:08.765Z,67725.28
2022-08-14T12:34:37.437Z,67670.50
2022-08-14T12:37:06.775Z,67733.91
2022-08-14T12:39:39.509Z,67697.56
2022-08-14T12:42:11.861Z,67718.84
2022-08-14T12:44:59.848Z,67763.88
2022-08-14T12:47:31.741Z,67723.19
2022-08-14T12:50:00.570Z,67701.06
2022-08-14T12:52:53.969Z,67690.84
2022-08-14T12:55:32.575Z,67667.56
2022-08-14T12:58:35.155Z,67697.00
2022-08-14T13:01:16.988Z,67697.06
2022-08-14T13:03:52.067Z,67649.50
2022-08-14T13:06:23.169Z,67624.78
2022-08-14T13:09:00.066Z,67621.13
2022-08-14T13:11:36.955Z,67483.28
2022-08-14T13:14:17.513Z,67574.16
2022-08-14T13:16:50.385Z,67545.78
2022-08-14T13:19:20.371Z,67645.03
2022-08-14T13:22:05.907Z,67596.66
2022-08-14T13:24:39.881Z,67546.78
2022-08-14T13:27:09.776Z,67544.53
2022-08-14T13:29:46.841Z,67469.31
2022-08-14T13:32:16.139Z,67505.28
2022-08-14T13:34:46.169Z,67473.38
2022-08-14T13:37:17.378Z,67525.53
2022-08-14T13:39:56.321Z,67642.78
2022-08-14T13:42:30.647Z,67675.69
2022-08-14T13:45:02.158Z,67682.09
2022-08-14T13:47:32.448Z,67708.50
2022-08-14T13:50:04.807Z,67670.78
2022-08-14T13:52:55.030Z,67706.94
2022-08-14T13:55:28.834Z,67686.38
2022-08-14T13:58:03.250Z,67683.66
2022-08-14T14:00:35.851Z,67679.09
2022-08-14T14:03:08.638Z,67657.31
2022-08-14T14:05:53.190Z,67653.19
2022-08-14T14:08:45.775Z,67743.41
2022-08-14T14:11:10.932Z,67623.66
2022-08-14T14:13:44.673Z,67653.59
2022-08-14T14:16:25.989Z,67643.13
2022-08-14T14:19:09.901Z,67730.38
2022-08-14T14:21:40.511Z,67811.13
2022-08-14T14:24:11.801Z,67929.75
2022-08-14T14:26:50.171Z,67857.69
2022-08-14T14:29:24.024Z,67941.53
2022-08-14T14:31:54.909Z,67862.00
2022-08-14T14:34:29.277Z,67882.31
2022-08-14T14:37:02.791Z,67878.78
2022-08-14T14:39:38.214Z,67877.19
2022-08-14T14:42:32.030Z,67850.22
2022-08-14T14:45:14.461Z,67886.50
2022-08-14T14:47:48.747Z,67854.97
2022-08-14T14:50:17.586Z,67779.66
2022-08-14T14:52:45.058Z,67744.16
2022-08-14T14:55:13.669Z,67705.59
2022-08-14T14:57:52.174Z,67742.78
2022-08-14T15:00:22.630Z,67711.50
2022-08-14T15:02:53.345Z,67791.13
2022-08-14T15:05:28.530Z,67815.75
2022-08-14T15:07:56.252Z,67829.03
2022-08-14T15:10:26.719Z,67831.56
2022-08-14T15:13:00.363Z,67913.03
2022-08-14T15:15:33.334Z,67919.38
2022-08-14T15:18:14.722Z,67894.84
2022-08-14T15:20:57.493Z,67950.44
2022-08-14T15:23:43.502Z,68014.91
2022-08-14T15:26:23.944Z,67952.13
2022-08-14T15:29:06.493Z,68017.97
2022-08-14T15:31:36.134Z,67962.50
2022-08-14T15:34:43.851Z,67917.63
2022-08-14T15:36:59.247Z,68015.66
2022-08-14T15:39:29.661Z,68045.75
2022-08-14T15:42:02.875Z,68012.00
2022-08-14T15:44:34.380Z,68011.81
2022-08-14T15:47:08.838Z,68005.13
2022-08-14T15:49:37.995Z,68084.28
2022-08-14T15:52:07.930Z,68038.56
2022-08-14T15:54:36.226Z,68039.75
2022-08-14T15:57:08.990Z,68039.91
2022-08-14T15:59:56.972Z,68085.88
2022-08-14T16:02:27.943Z,68171.97
2022-08-14T16:04:56.421Z,68192.31
2022-08-14T16:07:27.150Z,68119.22
2022-08-14T16:10:25.259Z,68105.72
2022-08-14T16:12:46.610Z,68069.81
2022-08-14T16:15:16.826Z,68095.25
2022-08-14T16:17:46.570Z,68056.13
2022-08-14T16:20:42.512Z,68080.53
2022-08-14T16:23:10.761Z,68127.88
2022-08-14T16:25:42.315Z,68133.06
2022-08-14T16:28:10.975Z,68121.38
2022-08-14T16:30:56.034Z,68152.63
2022-08-14T16:33:27.919Z,68166.00
2022-08-14T16:36:30.774Z,68199.19
2022-08-14T16:39:05.217Z,68149.28
2022-08-14T16:41:34.895Z,68140.56
2022-08-14T16:44:13.737Z,68167.16
2022-08-14T16:46:55.316Z,68178.59
2022-08-14T16:49:35.255Z,68171.00
2022-08-14T16:52:43.515Z,68170.53
2022-08-14T16:55:06.699Z,68198.41
2022-08-14T16:57:34.395Z,68138.88
2022-08-14T17:00:07.036Z,68086.88
2022-08-14T17:02:44.947Z,68140.31
2022-08-14T17:05:24.788Z,68125.69
2022-08-14T17:08:33.023Z,68068.22
2022-08-14T17:10:51.774Z,68113.38
2022-08-14T17:13:58.298Z,68111.72
2022-08-14T17:16:23.983Z,68074.00
2022-08-14T17:19:00.528Z,68148.72
2022-08-14T17:21:32.356Z,68108.38
2022-08-14T17:24:58.415Z,68101.72
2022-08-14T17:26:59.802Z,68088.13
2022-08-14T17:29:44.761Z,68084.59
2022-08-14T17:32:29.450Z,68093.47
2022-08-14T17:35:10.542Z,68120.84
2022-08-14T17:37:45.266Z,68101.03
2022-08-14T17:40:19.870Z,68138.69
2022-08-14T17:42:51.423Z,68169.50
2022-08-14T17:45:26.786Z,68130.66
2022-08-14T17:47:59.519Z,68199.00
2022-08-14T17:51:00.374Z,68165.72
2022-08-14T17:53:30.609Z,68176.88
2022-08-14T17:56:01.718Z,68163.13
2022-08-14T17:58:38.600Z,68222.97
2022-08-14T18:01:13.669Z,68182.69
2022-08-14T18:03:50.420Z,68164.44
2022-08-14T18:06:39.399Z,68152.47
2022-08-14T18:09:24.947Z,68128.28
2022-08-14T18:12:01.386Z,68106.97
2022-08-14T18:14:48.828Z,68245.94
2022-08-14T18:17:23.145Z,68165.56
2022-08-14T18:19:52.382Z,68126.31
2022-08-14T18:22:32.059Z,68126.88
2022-08-14T18:25:02.390Z,68045.44
2022-08-14T18:27:43.621Z,68056.19
2022-08-14T18:30:33.591Z,68037.50
2022-08-14T18:33:22.374Z,68007.28
2022-08-14T18:35:59.795Z,68041.53
2022-08-14T18:38:45.769Z,67961.53
2022-08-14T18:41:38.075Z,67984.97
2022-08-14T18:44:10.065Z,67978.22
2022-08-14T18:47:15.040Z,67955.84
2022-08-14T18:49:57.368Z,67929.09
2022-08-14T18:52:34.661Z,67899.16
2022-08-14T18:55:22.548Z,67885.75
2022-08-14T18:57:58.929Z,67884.72
2022-08-14T19:00:33.319Z,67879.50
2022-08-14T19:03:05.586Z,67859.47
2022-08-14T19:05:49.322Z,67850.34
2022-08-14T19:08:22.089Z,67825.25
2022-08-14T19:10:59.429Z,67836.72
2022-08-14T19:13:48.613Z,67807.09
2022-08-14T19:16:33.290Z,67787.81
2022-08-14T19:19:06.757Z,67819.41
2022-08-14T19:21:41.065Z,67816.97
2022-08-14T19:24:30.261Z,67770.59
2022-08-14T19:27:23.721Z,67728.50
2022-08-14T19:30:10.632Z,67654.41
2022-08-14T19:32:50.579Z,67475.75
2022-08-14T19:35:24.443Z,67329.91
2022-08-14T19:37:57.257Z,67174.16
2022-08-14T19:40:41.962Z,66990.53
2022-08-14T19:43:22.710Z,66901.44
2022-08-14T19:46:39.346Z,66753.38
2022-08-14T19:48:58.275Z,66687.41
2022-08-14T19:51:32.872Z,66590.22
2022-08-14T19:54:13.436Z,66469.81
2022-08-14T19:56:47.118Z,66357.53
2022-08-14T19:59:19.728Z,66212.91
2022-08-14T20:01:52.503Z,65981.03
2022-08-14T20:04:47.735Z,65688.72
2022-08-14T20:07:59.115Z,65404.13
2022-08-14T20:11:10.434Z,65100.25
2022-08-14T20:13:32.592Z,64935.41
2022-08-14T20:16:12.033Z,64600.28
2022-08-14T20:18:49.030Z,64404.19
2022-08-14T20:21:19.917Z,64264.28
2022-08-14T20:23:49.914Z,64151.81
2022-08-14T20:26:31.441Z,64003.38
2022-08-14T20:29:04.991Z,63903.31
2022-08-14T20:31:36.572Z,63768.91
2022-08-14T20:34:18.612Z,63581.84
2022-08-14T20:37:01.878Z,63423.78
2022-08-14T20:39:34.413Z,63266.34
2022-08-14T20:42:29.571Z,63127.22
2022-08-14T20:45:23.787Z,62910.09
2022-08-14T20:47:56.506Z,62642.41
2022-08-14T20:50:28.766Z,62556.97
2022-08-14T20:53:06.078Z,62506.72
2022-08-14T20:55:49.052Z,62256.56
2022-08-14T20:58:44.297Z,62131.09
2022-08-14T21:01:18.552Z,61981.25
2022-08-14T21:03:57.361Z,61840.09
2022-08-14T21:07:23.183Z,61693.50
2022-08-14T21:10:03.128Z,61531.41
2022-08-14T21:12:33.935Z,61363.09
2022-08-14T21:15:03.883Z,61195.22
2022-08-14T21:17:32.590Z,61061.72
2022-08-14T21:20:25.610Z,60929.81
2022-08-14T21:23:00.397Z,60870.22
2022-08-14T21:25:31.842Z,60718.53
2022-08-14T21:28:03.302Z,60717.88
2022-08-14T21:30:51.498Z,60645.88
2022-08-14T21:33:21.913Z,60612.34
2022-08-14T21:35:54.938Z,60638.75
2022-08-14T21:38:33.948Z,60601.44
2022-08-14T21:41:42.753Z,60591.44
2022-08-14T21:44:18.331Z,60535.56
2022-08-14T21:46:56.335Z,60497.84
2022-08-14T21:49:34.386Z,60523.03
2022-08-14T21:52:51.383Z,60505.28
2022-08-14T21:55:09.638Z,60498.28
2022-08-14T21:58:46.010Z,60485.59
2022-08-14T22:00:39.433Z,60550.00
2022-08-14T22:03:23.625Z,60386.75
2022-08-14T22:05:56.195Z,60357.94
2022-08-14T22:08:26.751Z,60215.44
2022-08-14T22:10:56.344Z,60223.66
2022-08-14T22:13:27.042Z,60185.63
2022-08-14T22:16:02.107Z,60179.28
2022-08-14T22:18:30.311Z,60181.31
2022-08-14T22:20:58.738Z,60224.28
2022-08-14T22:23:26.561Z,60161.59
2022-08-14T22:25:55.507Z,60134.00
2022-08-14T22:28:32.745Z,60159.00
2022-08-14T22:31:18.307Z,60174.09
2022-08-14T22:33:57.753Z,60212.88
2022-08-14T22:36:45.390Z,60122.91
2022-08-14T22:39:19.575Z,60158.81
2022-08-14T22:42:20.935Z,60238.28
2022-08-14T22:44:56.539Z,60137.53
2022-08-14T22:47:25.516Z,60108.44
2022-08-14T22:50:31.316Z,60046.03
2022-08-14T22:52:49.177Z,60003.66
2022-08-14T22:55:17.526Z,60021.09
2022-08-14T22:57:44.923Z,60077.78
2022-08-14T23:00:25.155Z,59988.31
2022-08-14T23:02:58.020Z,59975.81
2022-08-14T23:05:39.193Z,59905.72
2022-08-14T23:08:56.405Z,59811.31
2022-08-14T23:11:03.105Z,59822.91
2022-08-14T23:13:32.293Z,59761.53
2022-08-14T23:16:00.432Z,59729.91
2022-08-14T23:18:29.941Z,59692.03
2022-08-14T23:20:58.253Z,59722.44
2022-08-14T23:23:26.013Z,59746.47
2022-08-14T23:26:00.312Z,59759.56
2022-08-14T23:28:58.128Z,59705.53
2022-08-14T23:31:35.745Z,59788.69
2022-08-14T23:34:10.018Z,59827.75
2022-08-14T23:36:53.316Z,59718.53
2022-08-14T23:39:29.503Z,59712.38
2022-08-14T23:42:02.606Z,59722.78
2022-08-14T23:44:35.256Z,59797.63
2022-08-14T23:47:10.649Z,59803.88
2022-08-14T23:49:59.928Z,59818.34
2022-08-14T23:52:55.589Z,59859.94
2022-08-14T23:55:16.060Z,59828.41
2022-08-14T23:57:58.035Z,59887.16
